Ifestos I — SV4139 — position and weather

sailwx.info

Track history (hours):
 
Tides and Currents Weather Stations Pressure Air Temp Water Temp Dewpoint Dewpoint Depression Visibility Wind Speed Wind Dir Waves Ship Positions

Ifestos I

Last reported at 2016-Aug-27 21:33 UTC. Time now 2016-Aug-27 22:16 UTC.
Position N 37°57' E 023°37'.

Length 30 m.

Type: Tug. MMSI: 237070500.

Date/timePositionNaut miles runAvg speedWind from/ knotsBaromVisibWave heightAir tempDewpointWater temp
2016-Aug-27 21:33N 37°57' E 023°37'0 0.0
2016-Aug-27 20:33N 37°57' E 023°37'0 0.0
2016-Aug-27 19:33N 37°57' E 023°37'4 3.7
2016-Aug-27 18:34N 37°60' E 023°33'3 3.0
2016-Aug-27 17:33N 38°02' E 023°31'0 0.0
2016-Aug-27 16:34N 38°02' E 023°31'3 2.7
2016-Aug-27 15:34N 37°60' E 023°33'4 3.9
2016-Aug-27 14:33N 37°57' E 023°37'1 1.4
2016-Aug-27 13:34N 37°57' E 023°35'0 0.4
2016-Aug-27 12:33N 37°57' E 023°35'1 0.8
2016-Aug-27 11:34N 37°58' E 023°36'0 0.0
2016-Aug-27 02:05N 37°57' E 023°37'0 0.0
2016-Aug-27 01:33N 37°57' E 023°37'0 0.0
2016-Aug-27 00:33N 37°57' E 023°37'1 1.1
2016-Aug-26 23:33N 37°57' E 023°35'1 1.1
2016-Aug-26 22:33N 37°57' E 023°37'0 0.0
2016-Aug-26 21:33N 37°57' E 023°37'0 0.0
2016-Aug-26 20:33N 37°57' E 023°37'2 1.6
2016-Aug-26 19:33N 37°56' E 023°38'0 0.0
2016-Aug-26 18:33N 37°56' E 023°38'2 2.0
2016-Aug-26 17:33N 37°57' E 023°36'2 1.6
2016-Aug-26 16:33N 37°56' E 023°37'0 0.5
2016-Aug-26 15:33N 37°56' E 023°38'0 0.4
2016-Aug-26 14:33N 37°56' E 023°37'1 1.5
2016-Aug-26 13:33N 37°57' E 023°37'0 0.0
2016-Aug-26 12:33N 37°57' E 023°37'1 1.0
2016-Aug-26 11:33N 37°57' E 023°36'1 1.0
2016-Aug-26 10:33N 37°57' E 023°37'0 0.0
2016-Aug-25 23:33N 37°57' E 023°37'0 0.0
2016-Aug-25 22:33N 37°57' E 023°37'0 0.0
2016-Aug-25 21:33N 37°57' E 023°37'0 0.0
2016-Aug-25 20:33N 37°57' E 023°37'1 0.7
2016-Aug-25 19:33N 37°57' E 023°36'1 0.7
2016-Aug-25 18:33N 37°57' E 023°37'0 0.0
2016-Aug-25 17:33N 37°57' E 023°37'1 0.6
2016-Aug-25 16:33N 37°57' E 023°36'0 0.2
2016-Aug-25 15:33N 37°57' E 023°36'2 1.9
2016-Aug-25 14:33N 37°56' E 023°38'0 0.1
2016-Aug-25 13:33N 37°56' E 023°38'2 1.6
2016-Aug-25 12:33N 37°57' E 023°37'1 0.8
2016-Aug-25 11:34N 37°57' E 023°36'1 0.8
2016-Aug-25 10:33N 37°57' E 023°37'0 0.0
2016-Aug-25 01:32N 37°57' E 023°37'0 0.0
2016-Aug-25 00:34N 37°57' E 023°37'0 0.0
2016-Aug-24 23:33N 37°57' E 023°37'0 0.0
2016-Aug-24 22:33N 37°57' E 023°37'0 0.0
2016-Aug-24 21:34N 37°57' E 023°37'2 1.8
2016-Aug-24 20:33N 37°56' E 023°35'1 1.1
2016-Aug-24 19:34N 37°57' E 023°36'1 0.8
2016-Aug-24 18:34N 37°57' E 023°37'0 0.0
2016-Aug-24 17:34N 37°57' E 023°37'0 0.0
2016-Aug-24 16:34N 37°57' E 023°37'2 1.5
2016-Aug-24 15:34N 37°57' E 023°35'2 1.5
2016-Aug-24 14:34N 37°57' E 023°37'0 0.0
2016-Aug-24 13:34N 37°57' E 023°37'0 0.2
2016-Aug-24 12:33N 37°57' E 023°36'0 0.1
2016-Aug-24 11:34N 37°57' E 023°37'0 0.0
2016-Aug-24 10:34N 37°57' E 023°37'0 0.0
2016-Aug-23 21:34N 37°57' E 023°37'0 0.0
2016-Aug-23 20:33N 37°57' E 023°37'1 0.7
2016-Aug-23 19:33N 37°57' E 023°36'0 0.4
2016-Aug-23 18:33N 37°57' E 023°35'1 1.1
2016-Aug-23 17:33N 37°57' E 023°37'2 1.6
2016-Aug-23 16:33N 37°56' E 023°38'0 0.0
2016-Aug-23 15:33N 37°56' E 023°38'0 0.0
2016-Aug-23 14:33N 37°56' E 023°38'0 0.1
2016-Aug-23 13:33N 37°56' E 023°38'2 1.9
2016-Aug-23 12:33N 37°57' E 023°36'0 0.1
2016-Aug-23 11:33N 37°57' E 023°36'1 0.6
2016-Aug-23 10:33N 37°57' E 023°37'0 0.0
2016-Aug-23 02:08N 37°57' E 023°37'0 0.0
2016-Aug-23 01:30N 37°57' E 023°37'0 0.0
2016-Aug-23 00:33N 37°57' E 023°37'0 0.0
2016-Aug-22 23:33N 37°57' E 023°37'1 1.1
2016-Aug-22 22:33N 37°57' E 023°35'0 0.1
2016-Aug-22 21:33N 37°57' E 023°35'0 0.2
2016-Aug-22 20:33N 37°57' E 023°35'0 0.1
2016-Aug-22 19:33N 37°57' E 023°35'1 1.2
2016-Aug-22 18:33N 37°57' E 023°37'0 0.0
2016-Aug-22 17:33N 37°57' E 023°37'1 1.0
2016-Aug-22 16:33N 37°57' E 023°35'0 0.0
2016-Aug-22 15:33N 37°57' E 023°35'0 0.4
2016-Aug-22 14:33N 37°57' E 023°35'1 1.4
2016-Aug-22 13:34N 37°57' E 023°37'0 0.0
2016-Aug-22 12:33N 37°57' E 023°37'0 0.4
2016-Aug-22 11:33N 37°57' E 023°36'0 0.4
2016-Aug-22 10:33N 37°57' E 023°37'0 0.0
2016-Aug-20 23:06N 37°57' E 023°37'0 0.0
2016-Aug-20 22:33N 37°57' E 023°37'0 0.0
2016-Aug-20 21:34N 37°57' E 023°37'1 1.2
2016-Aug-20 20:34N 37°57' E 023°35'1 1.2
2016-Aug-20 19:33N 37°57' E 023°37'0 0.5
2016-Aug-20 18:33N 37°57' E 023°36'0 0.5
2016-Aug-20 17:33N 37°57' E 023°37'0 0.0
2016-Aug-20 16:33N 37°57' E 023°37'0 0.1
2016-Aug-20 15:33N 37°57' E 023°36'0 0.1
2016-Aug-20 14:33N 37°57' E 023°37'0 0.0
2016-Aug-20 13:33N 37°57' E 023°37'0 0.0
2016-Aug-20 12:33N 37°57' E 023°37'0 0.0
2016-Aug-20 11:33N 37°57' E 023°37'1 1.3
2016-Aug-20 10:33N 37°56' E 023°36'0 0.3
2016-Aug-20 09:33N 37°56' E 023°36'2 1.6
2016-Aug-20 08:34N 37°57' E 023°37'0 0.3
2016-Aug-20 07:33N 37°57' E 023°36'2 1.6
2016-Aug-20 06:33N 37°56' E 023°38'1 0.9
2016-Aug-20 05:33N 37°56' E 023°37'1 1.2
2016-Aug-20 04:33N 37°56' E 023°38'1 0.6
2016-Aug-20 03:33N 37°56' E 023°37'1 0.1
2016-Aug-19 15:33N 37°57' E 023°37'0 0.0
2016-Aug-19 14:33N 37°57' E 023°37'2 2.4
2016-Aug-19 13:33N 37°58' E 023°33'0 0.3
2016-Aug-19 12:33N 37°57' E 023°34'2 2.4
2016-Aug-19 11:33N 37°57' E 023°37'1 1.0
2016-Aug-19 10:33N 37°57' E 023°35'2 2.0
2016-Aug-19 09:33N 37°57' E 023°33'4 4.3
2016-Aug-19 08:33N 37°56' E 023°38'0 0.0
2016-Aug-19 07:33N 37°56' E 023°38'2 2.0
2016-Aug-19 06:33N 37°57' E 023°36'1 0.7
2016-Aug-19 05:33N 37°57' E 023°37'1 0.6
2016-Aug-19 04:33N 37°57' E 023°36'1 0.6
2016-Aug-19 03:33N 37°57' E 023°36'1 0.1
2016-Aug-18 17:29N 37°57' E 023°37'0 0.0
2016-Aug-18 16:33N 37°57' E 023°37'0 0.0
2016-Aug-18 15:33N 37°57' E 023°37'2 1.5
2016-Aug-18 14:33N 37°56' E 023°37'0 0.1
2016-Aug-18 13:33N 37°56' E 023°37'0 0.0
2016-Aug-18 12:33N 37°56' E 023°37'1 0.6
2016-Aug-18 11:33N 37°56' E 023°38'0 0.3
2016-Aug-18 10:33N 37°57' E 023°38'0 0.0
2016-Aug-18 09:33N 37°57' E 023°38'0 0.0
2016-Aug-18 08:32N 37°57' E 023°38'0 0.0
2016-Aug-18 07:33N 37°57' E 023°38'0 0.0
2016-Aug-18 06:33N 37°57' E 023°38'0 0.3
2016-Aug-18 05:33N 37°56' E 023°38'1 0.7
2016-Aug-18 04:33N 37°56' E 023°37'1 1.1
2016-Aug-18 03:33N 37°57' E 023°36'  
Track history (hours):
 
Tides and Currents Weather Stations Pressure Air Temp Water Temp Dewpoint Dewpoint Depression Visibility Wind Speed Wind Dir Waves Ship Positions

Ifestos I

Last reported at 2016-Aug-27 21:33 UTC. Time now 2016-Aug-27 22:16 UTC.
Position N 37°57' E 023°37'.

Length 30 m.

Type: Tug. MMSI: 237070500.

Date/timePositionNaut miles runAvg speedWind from/ knotsBaromVisibWave heightAir tempDewpointWater temp
2016-Aug-27 21:33N 37°57' E 023°37'0 0.0
2016-Aug-27 20:33N 37°57' E 023°37'0 0.0
2016-Aug-27 19:33N 37°57' E 023°37'4 3.7
2016-Aug-27 18:34N 37°60' E 023°33'3 3.0
2016-Aug-27 17:33N 38°02' E 023°31'0 0.0
2016-Aug-27 16:34N 38°02' E 023°31'3 2.7
2016-Aug-27 15:34N 37°60' E 023°33'4 3.9
2016-Aug-27 14:33N 37°57' E 023°37'1 1.4
2016-Aug-27 13:34N 37°57' E 023°35'0 0.4
2016-Aug-27 12:33N 37°57' E 023°35'1 0.8
2016-Aug-27 11:34N 37°58' E 023°36'0 0.0
2016-Aug-27 02:05N 37°57' E 023°37'0 0.0
2016-Aug-27 01:33N 37°57' E 023°37'0 0.0
2016-Aug-27 00:33N 37°57' E 023°37'1 1.1
2016-Aug-26 23:33N 37°57' E 023°35'1 1.1
2016-Aug-26 22:33N 37°57' E 023°37'0 0.0
2016-Aug-26 21:33N 37°57' E 023°37'0 0.0
2016-Aug-26 20:33N 37°57' E 023°37'2 1.6
2016-Aug-26 19:33N 37°56' E 023°38'0 0.0
2016-Aug-26 18:33N 37°56' E 023°38'2 2.0
2016-Aug-26 17:33N 37°57' E 023°36'2 1.6
2016-Aug-26 16:33N 37°56' E 023°37'0 0.5
2016-Aug-26 15:33N 37°56' E 023°38'0 0.4
2016-Aug-26 14:33N 37°56' E 023°37'1 1.5
2016-Aug-26 13:33N 37°57' E 023°37'0 0.0
2016-Aug-26 12:33N 37°57' E 023°37'1 1.0
2016-Aug-26 11:33N 37°57' E 023°36'1 1.0
2016-Aug-26 10:33N 37°57' E 023°37'0 0.0
2016-Aug-25 23:33N 37°57' E 023°37'0 0.0
2016-Aug-25 22:33N 37°57' E 023°37'0 0.0
2016-Aug-25 21:33N 37°57' E 023°37'0 0.0
2016-Aug-25 20:33N 37°57' E 023°37'1 0.7
2016-Aug-25 19:33N 37°57' E 023°36'1 0.7
2016-Aug-25 18:33N 37°57' E 023°37'0 0.0
2016-Aug-25 17:33N 37°57' E 023°37'1 0.6
2016-Aug-25 16:33N 37°57' E 023°36'0 0.2
2016-Aug-25 15:33N 37°57' E 023°36'2 1.9
2016-Aug-25 14:33N 37°56' E 023°38'0 0.1
2016-Aug-25 13:33N 37°56' E 023°38'2 1.6
2016-Aug-25 12:33N 37°57' E 023°37'1 0.8
2016-Aug-25 11:34N 37°57' E 023°36'1 0.8
2016-Aug-25 10:33N 37°57' E 023°37'0 0.0
2016-Aug-25 01:32N 37°57' E 023°37'0 0.0
2016-Aug-25 00:34N 37°57' E 023°37'0 0.0
2016-Aug-24 23:33N 37°57' E 023°37'0 0.0
2016-Aug-24 22:33N 37°57' E 023°37'0 0.0
2016-Aug-24 21:34N 37°57' E 023°37'2 1.8
2016-Aug-24 20:33N 37°56' E 023°35'1 1.1
2016-Aug-24 19:34N 37°57' E 023°36'1 0.8
2016-Aug-24 18:34N 37°57' E 023°37'0 0.0
2016-Aug-24 17:34N 37°57' E 023°37'0 0.0
2016-Aug-24 16:34N 37°57' E 023°37'2 1.5
2016-Aug-24 15:34N 37°57' E 023°35'2 1.5
2016-Aug-24 14:34N 37°57' E 023°37'0 0.0
2016-Aug-24 13:34N 37°57' E 023°37'0 0.2
2016-Aug-24 12:33N 37°57' E 023°36'0 0.1
2016-Aug-24 11:34N 37°57' E 023°37'0 0.0
2016-Aug-24 10:34N 37°57' E 023°37'0 0.0
2016-Aug-23 21:34N 37°57' E 023°37'0 0.0
2016-Aug-23 20:33N 37°57' E 023°37'1 0.7
2016-Aug-23 19:33N 37°57' E 023°36'0 0.4
2016-Aug-23 18:33N 37°57' E 023°35'1 1.1
2016-Aug-23 17:33N 37°57' E 023°37'2 1.6
2016-Aug-23 16:33N 37°56' E 023°38'0 0.0
2016-Aug-23 15:33N 37°56' E 023°38'0 0.0
2016-Aug-23 14:33N 37°56' E 023°38'0 0.1
2016-Aug-23 13:33N 37°56' E 023°38'2 1.9
2016-Aug-23 12:33N 37°57' E 023°36'0 0.1
2016-Aug-23 11:33N 37°57' E 023°36'1 0.6
2016-Aug-23 10:33N 37°57' E 023°37'0 0.0
2016-Aug-23 02:08N 37°57' E 023°37'0 0.0
2016-Aug-23 01:30N 37°57' E 023°37'0 0.0
2016-Aug-23 00:33N 37°57' E 023°37'0 0.0
2016-Aug-22 23:33N 37°57' E 023°37'1 1.1
2016-Aug-22 22:33N 37°57' E 023°35'0 0.1
2016-Aug-22 21:33N 37°57' E 023°35'0 0.2
2016-Aug-22 20:33N 37°57' E 023°35'0 0.1
2016-Aug-22 19:33N 37°57' E 023°35'1 1.2
2016-Aug-22 18:33N 37°57' E 023°37'0 0.0
2016-Aug-22 17:33N 37°57' E 023°37'1 1.0
2016-Aug-22 16:33N 37°57' E 023°35'0 0.0
2016-Aug-22 15:33N 37°57' E 023°35'0 0.4
2016-Aug-22 14:33N 37°57' E 023°35'1 1.4
2016-Aug-22 13:34N 37°57' E 023°37'0 0.0
2016-Aug-22 12:33N 37°57' E 023°37'0 0.4
2016-Aug-22 11:33N 37°57' E 023°36'0 0.4
2016-Aug-22 10:33N 37°57' E 023°37'0 0.0
2016-Aug-20 23:06N 37°57' E 023°37'0 0.0
2016-Aug-20 22:33N 37°57' E 023°37'0 0.0
2016-Aug-20 21:34N 37°57' E 023°37'1 1.2
2016-Aug-20 20:34N 37°57' E 023°35'1 1.2
2016-Aug-20 19:33N 37°57' E 023°37'0 0.5
2016-Aug-20 18:33N 37°57' E 023°36'0 0.5
2016-Aug-20 17:33N 37°57' E 023°37'0 0.0
2016-Aug-20 16:33N 37°57' E 023°37'0 0.1
2016-Aug-20 15:33N 37°57' E 023°36'0 0.1
2016-Aug-20 14:33N 37°57' E 023°37'0 0.0
2016-Aug-20 13:33N 37°57' E 023°37'0 0.0
2016-Aug-20 12:33N 37°57' E 023°37'0 0.0
2016-Aug-20 11:33N 37°57' E 023°37'1 1.3
2016-Aug-20 10:33N 37°56' E 023°36'0 0.3
2016-Aug-20 09:33N 37°56' E 023°36'2 1.6
2016-Aug-20 08:34N 37°57' E 023°37'0 0.3
2016-Aug-20 07:33N 37°57' E 023°36'2 1.6
2016-Aug-20 06:33N 37°56' E 023°38'1 0.9
2016-Aug-20 05:33N 37°56' E 023°37'1 1.2
2016-Aug-20 04:33N 37°56' E 023°38'1 0.6
2016-Aug-20 03:33N 37°56' E 023°37'1 0.1
2016-Aug-19 15:33N 37°57' E 023°37'0 0.0
2016-Aug-19 14:33N 37°57' E 023°37'2 2.4
2016-Aug-19 13:33N 37°58' E 023°33'0 0.3
2016-Aug-19 12:33N 37°57' E 023°34'2 2.4
2016-Aug-19 11:33N 37°57' E 023°37'1 1.0
2016-Aug-19 10:33N 37°57' E 023°35'2 2.0
2016-Aug-19 09:33N 37°57' E 023°33'4 4.3
2016-Aug-19 08:33N 37°56' E 023°38'0 0.0
2016-Aug-19 07:33N 37°56' E 023°38'2 2.0
2016-Aug-19 06:33N 37°57' E 023°36'1 0.7
2016-Aug-19 05:33N 37°57' E 023°37'1 0.6
2016-Aug-19 04:33N 37°57' E 023°36'1 0.6
2016-Aug-19 03:33N 37°57' E 023°36'1 0.1
2016-Aug-18 17:29N 37°57' E 023°37'0 0.0
2016-Aug-18 16:33N 37°57' E 023°37'0 0.0
2016-Aug-18 15:33N 37°57' E 023°37'2 1.5
2016-Aug-18 14:33N 37°56' E 023°37'0 0.1
2016-Aug-18 13:33N 37°56' E 023°37'0 0.0
2016-Aug-18 12:33N 37°56' E 023°37'1 0.6
2016-Aug-18 11:33N 37°56' E 023°38'0 0.3
2016-Aug-18 10:33N 37°57' E 023°38'0 0.0
2016-Aug-18 09:33N 37°57' E 023°38'0 0.0
2016-Aug-18 08:32N 37°57' E 023°38'0 0.0
2016-Aug-18 07:33N 37°57' E 023°38'0 0.0
2016-Aug-18 06:33N 37°57' E 023°38'0 0.3
2016-Aug-18 05:33N 37°56' E 023°38'1 0.7
2016-Aug-18 04:33N 37°56' E 023°37'1 1.1
2016-Aug-18 03:33N 37°57' E 023°36'  

Dump ship's entire track history